Time;durP1;ratioP1;P1;durP2;ratioP2;P2;SDS_P1;SDS_P2;PMS_P1;PMS_P2;Temp;Humidity;BMP_temperature;BMP_pressure;BME280_temperature;BME280_humidity;BME280_pressure;Samples;Min_cycle;Max_cycle;Signal;HPM_P1;HPM_P2
2021/04/25 00:02:20;;;;;;;6.73;2.10;;;6.80;99.90;;;;;;5092203;28;20276;-76
2021/04/25 00:04:47;;;;;;;7.37;2.20;;;6.80;99.90;;;;;;5091549;28;20283;-77
2021/04/25 00:07:14;;;;;;;4.17;2.47;;;6.60;99.90;;;;;;5092465;28;20188;-78
2021/04/25 00:09:41;;;;;;;4.97;2.37;;;6.60;99.90;;;;;;5092378;28;20655;-75
2021/04/25 00:12:07;;;;;;;8.10;2.30;;;6.60;99.90;;;;;;5091457;28;20337;-75
2021/04/25 00:14:35;;;;;;;5.47;2.57;;;6.60;99.90;;;;;;5089524;28;20704;-77
2021/04/25 00:17:02;;;;;;;4.47;2.30;;;6.60;99.90;;;;;;5092092;28;20284;-76
2021/04/25 00:19:28;;;;;;;8.07;2.60;;;6.60;99.90;;;;;;5092426;28;20660;-77
2021/04/25 00:21:55;;;;;;;3.97;2.10;;;6.50;99.90;;;;;;5091927;28;20272;-76
2021/04/25 00:24:21;;;;;;;6.63;2.40;;;6.40;99.90;;;;;;5091821;28;20212;-75
2021/04/25 00:26:48;;;;;;;7.07;2.40;;;6.40;99.90;;;;;;5092261;28;20203;-75
2021/04/25 00:29:14;;;;;;;5.10;2.43;;;6.40;99.90;;;;;;5092279;28;20277;-75
2021/04/25 00:31:41;;;;;;;10.47;2.50;;;6.40;99.90;;;;;;5092434;28;20197;-75
2021/04/25 00:34:08;;;;;;;6.63;2.40;;;6.30;99.90;;;;;;5092040;28;20267;-76
2021/04/25 00:36:34;;;;;;;4.70;2.50;;;6.30;99.90;;;;;;5091872;28;20202;-75
2021/04/25 00:39:00;;;;;;;8.93;3.07;;;6.30;99.90;;;;;;5092434;28;20230;-75
2021/04/25 00:41:27;;;;;;;6.80;2.90;;;6.20;99.90;;;;;;5092624;28;20281;-74
2021/04/25 00:43:54;;;;;;;5.60;2.73;;;6.20;99.90;;;;;;5092301;28;20287;-77
2021/04/25 00:46:21;;;;;;;7.03;2.67;;;6.20;99.90;;;;;;5091798;28;20278;-75
2021/04/25 00:48:49;;;;;;;7.57;2.97;;;6.20;99.90;;;;;;5092095;28;20285;-76
2021/04/25 00:51:16;;;;;;;6.40;2.57;;;6.10;99.90;;;;;;5091681;28;20315;-75
2021/04/25 00:53:43;;;;;;;8.63;2.67;;;6.10;99.90;;;;;;5092071;28;20230;-77
2021/04/25 00:56:10;;;;;;;5.63;2.50;;;6.10;99.90;;;;;;5091927;28;20302;-75
2021/04/25 00:58:37;;;;;;;8.47;3.60;;;6.00;99.90;;;;;;5092047;28;20192;-75
2021/04/25 01:01:04;;;;;;;7.27;2.90;;;5.90;99.90;;;;;;5086404;28;20272;-76
2021/04/25 01:03:30;;;;;;;7.17;3.00;;;5.80;99.90;;;;;;5091369;28;20215;-76
2021/04/25 01:05:57;;;;;;;9.33;3.33;;;5.80;99.90;;;;;;5091662;28;20563;-75
2021/04/25 01:08:24;;;;;;;8.27;3.23;;;5.80;99.90;;;;;;5086596;28;20602;-77
2021/04/25 01:10:50;;;;;;;9.27;3.47;;;5.70;99.90;;;;;;5091724;28;20660;-75
2021/04/25 01:13:17;;;;;;;8.27;3.30;;;5.70;99.90;;;;;;5087735;28;20188;-75
2021/04/25 01:15:44;;;;;;;11.57;3.27;;;5.70;99.90;;;;;;5091261;28;20790;-75
2021/04/25 01:18:10;;;;;;;7.67;3.73;;;5.70;99.90;;;;;;5091445;28;20204;-75
2021/04/25 01:20:37;;;;;;;7.60;3.67;;;5.60;99.90;;;;;;5089346;28;20196;-75
2021/04/25 01:23:04;;;;;;;10.33;4.00;;;5.60;99.90;;;;;;5091760;28;20218;-75
2021/04/25 01:25:31;;;;;;;10.77;4.33;;;5.60;99.90;;;;;;5091888;28;20196;-76
2021/04/25 01:27:57;;;;;;;13.27;4.00;;;5.50;99.90;;;;;;5092170;28;20277;-78
2021/04/25 01:30:26;;;;;;;10.70;3.70;;;5.50;99.90;;;;;;5091637;28;20360;-75
2021/04/25 01:32:52;;;;;;;8.57;4.33;;;5.50;99.90;;;;;;5091601;28;20204;-77
2021/04/25 01:35:21;;;;;;;9.43;4.37;;;5.50;99.90;;;;;;5095101;28;20224;-75
2021/04/25 01:37:49;;;;;;;9.10;3.90;;;5.50;99.90;;;;;;5095554;28;20241;-77
2021/04/25 01:40:17;;;;;;;11.47;4.57;;;5.30;99.90;;;;;;5095690;28;20293;-75
2021/04/25 01:42:43;;;;;;;11.67;4.10;;;5.20;99.90;;;;;;5095619;28;20194;-75
2021/04/25 01:45:16;;;;;;;8.83;3.90;;;5.20;99.90;;;;;;5095346;28;20277;-77
2021/04/25 01:47:43;;;;;;;9.17;3.73;;;5.30;99.90;;;;;;5095933;28;20331;-78
2021/04/25 01:50:10;;;;;;;10.77;4.80;;;5.20;99.90;;;;;;5092734;28;20284;-77
2021/04/25 01:52:36;;;;;;;10.30;4.43;;;5.20;99.90;;;;;;5095757;28;20221;-76
2021/04/25 01:55:04;;;;;;;7.40;3.80;;;5.20;99.90;;;;;;5095291;28;20219;-76
2021/04/25 01:57:31;;;;;;;7.77;4.43;;;5.20;99.90;;;;;;5095358;28;20196;-77
2021/04/25 01:59:57;;;;;;;9.67;4.10;;;5.20;99.90;;;;;;5094965;28;20205;-76
2021/04/25 02:02:23;;;;;;;12.43;5.03;;;5.20;99.90;;;;;;5095475;28;20197;-77
2021/04/25 02:04:50;;;;;;;9.83;5.00;;;5.20;99.90;;;;;;5095048;28;20225;-76
2021/04/25 02:07:16;;;;;;;12.70;5.27;;;5.20;99.90;;;;;;5095272;28;20193;-76
2021/04/25 02:09:42;;;;;;;10.77;4.80;;;5.20;99.90;;;;;;5095380;28;20203;-76
2021/04/25 02:12:09;;;;;;;9.93;5.27;;;5.20;99.90;;;;;;5094963;28;20511;-76
2021/04/25 02:14:36;;;;;;;10.23;5.10;;;5.10;99.90;;;;;;5095053;28;20230;-76
2021/04/25 02:17:03;;;;;;;11.40;4.63;;;5.10;99.90;;;;;;5094739;28;20307;-77
2021/04/25 02:19:29;;;;;;;13.70;5.57;;;5.00;99.90;;;;;;5094535;28;20199;-78
2021/04/25 02:21:55;;;;;;;10.23;4.83;;;5.00;99.90;;;;;;5094729;28;20208;-77
2021/04/25 02:24:22;;;;;;;12.03;4.80;;;5.00;99.90;;;;;;5094683;28;20303;-76
2021/04/25 02:26:48;;;;;;;10.37;5.30;;;4.90;99.90;;;;;;5094683;28;20618;-76
2021/04/25 02:29:14;;;;;;;10.93;5.10;;;4.80;99.90;;;;;;5094319;28;20211;-76
2021/04/25 02:31:42;;;;;;;9.53;5.23;;;4.80;99.90;;;;;;5094750;28;20730;-76
2021/04/25 02:34:08;;;;;;;12.40;5.30;;;4.80;99.90;;;;;;5094523;28;20566;-76
2021/04/25 02:36:34;;;;;;;11.83;5.20;;;4.70;99.90;;;;;;5094750;28;20201;-77
2021/04/25 02:39:01;;;;;;;10.23;4.87;;;4.70;99.90;;;;;;5094519;28;20204;-76
2021/04/25 02:41:27;;;;;;;15.50;5.70;;;4.70;99.90;;;;;;5094757;28;20655;-76
2021/04/25 02:43:54;;;;;;;11.53;4.83;;;4.70;99.90;;;;;;5094120;28;20208;-76
2021/04/25 02:46:20;;;;;;;10.00;4.57;;;4.60;99.90;;;;;;5092448;28;20212;-80
2021/04/25 02:48:47;;;;;;;12.30;4.77;;;4.70;99.90;;;;;;5092808;28;20307;-76
2021/04/25 02:51:13;;;;;;;12.27;5.50;;;4.60;99.90;;;;;;5092475;28;20196;-75
2021/04/25 02:53:40;;;;;;;12.10;5.47;;;4.50;99.90;;;;;;5093101;28;20211;-79
2021/04/25 02:56:06;;;;;;;10.40;5.17;;;4.50;99.90;;;;;;5092415;28;20221;-78
2021/04/25 02:58:32;;;;;;;15.33;5.17;;;4.50;99.90;;;;;;5092293;28;20199;-76
2021/04/25 03:00:59;;;;;;;9.23;5.00;;;4.40;99.90;;;;;;5093159;28;20488;-78
2021/04/25 03:03:25;;;;;;;15.50;5.80;;;4.40;99.90;;;;;;5095027;28;20196;-76
2021/04/25 03:05:55;;;;;;;11.13;5.50;;;4.40;99.90;;;;;;5078415;28;20608;-76
2021/04/25 03:08:22;;;;;;;10.80;5.87;;;4.40;99.90;;;;;;5094502;28;20199;-76
2021/04/25 03:10:48;;;;;;;10.30;5.47;;;4.40;99.90;;;;;;5094238;28;20200;-77
2021/04/25 03:13:15;;;;;;;11.93;6.00;;;4.30;99.90;;;;;;5094508;28;20196;-80
2021/04/25 03:15:41;;;;;;;16.87;6.57;;;4.40;99.90;;;;;;5094649;28;20246;-78
2021/04/25 03:18:08;;;;;;;17.07;6.33;;;4.30;99.90;;;;;;5094101;28;20614;-75
2021/04/25 03:20:34;;;;;;;15.03;6.10;;;4.30;99.90;;;;;;5094062;28;20270;-78
2021/04/25 03:23:01;;;;;;;15.97;6.30;;;4.30;99.90;;;;;;5094344;28;20200;-76
2021/04/25 03:25:28;;;;;;;14.90;6.67;;;4.20;99.90;;;;;;5093865;28;20291;-79
2021/04/25 03:27:54;;;;;;;15.83;6.60;;;4.20;99.90;;;;;;5073880;28;20201;-76
2021/04/25 03:30:21;;;;;;;18.23;6.53;;;4.30;99.90;;;;;;5089536;28;20300;-76
2021/04/25 03:32:48;;;;;;;16.13;6.40;;;4.20;99.90;;;;;;5093806;28;20204;-79
2021/04/25 03:35:17;;;;;;;20.60;6.67;;;4.20;99.90;;;;;;5079234;28;20228;-77
2021/04/25 03:37:44;;;;;;;14.60;6.77;;;4.00;99.90;;;;;;5073346;28;20343;-77
2021/04/25 03:40:13;;;;;;;21.30;7.57;;;3.90;99.90;;;;;;5086213;28;20215;-76
2021/04/25 03:42:40;;;;;;;13.07;6.27;;;3.90;99.90;;;;;;5093699;28;20204;-76
2021/04/25 03:45:13;;;;;;;18.03;7.23;;;4.00;99.90;;;;;;5092995;28;20203;-77
2021/04/25 03:47:39;;;;;;;18.37;7.33;;;4.00;99.90;;;;;;5093259;28;20658;-76
2021/04/25 03:50:07;;;;;;;14.37;7.10;;;3.90;99.90;;;;;;5093224;28;20248;-76
2021/04/25 03:52:33;;;;;;;18.00;7.20;;;3.90;99.90;;;;;;5092700;28;20194;-75
2021/04/25 03:55:00;;;;;;;13.97;7.03;;;3.90;99.90;;;;;;5093481;28;20231;-79
2021/04/25 03:57:27;;;;;;;18.60;6.67;;;3.90;99.90;;;;;;5092729;28;20661;-76
2021/04/25 03:59:53;;;;;;;15.10;6.83;;;3.90;99.90;;;;;;5093445;28;20328;-76
2021/04/25 04:02:20;;;;;;;14.97;6.33;;;3.90;99.90;;;;;;5093031;28;20279;-78
2021/04/25 04:04:46;;;;;;;22.50;7.47;;;3.90;99.90;;;;;;5093652;28;20207;-77
2021/04/25 04:07:12;;;;;;;15.70;7.73;;;3.90;99.90;;;;;;5092648;28;20199;-80
2021/04/25 04:09:39;;;;;;;14.27;7.17;;;3.80;99.90;;;;;;5092962;28;20333;-77
2021/04/25 04:12:07;;;;;;;16.83;7.63;;;3.80;99.90;;;;;;5092849;28;20283;-75
2021/04/25 04:14:34;;;;;;;16.13;6.97;;;3.80;99.90;;;;;;5093044;28;20232;-76
2021/04/25 04:17:00;;;;;;;15.93;7.70;;;3.70;99.90;;;;;;5092799;28;20203;-76
2021/04/25 04:19:27;;;;;;;17.03;7.67;;;3.80;99.90;;;;;;5092633;28;20669;-78
2021/04/25 04:21:53;;;;;;;15.43;7.70;;;3.80;99.90;;;;;;5092744;28;20254;-77
2021/04/25 04:24:19;;;;;;;17.83;7.37;;;3.80;99.90;;;;;;5092855;28;20192;-78
2021/04/25 04:26:46;;;;;;;19.63;7.87;;;3.80;99.90;;;;;;5092704;28;20293;-79
2021/04/25 04:29:13;;;;;;;18.07;7.87;;;3.80;99.90;;;;;;5092789;28;20257;-77
2021/04/25 04:31:40;;;;;;;17.60;7.80;;;3.80;99.90;;;;;;5092851;28;20583;-78
2021/04/25 04:34:06;;;;;;;15.70;7.57;;;3.80;99.90;;;;;;5092302;28;20300;-78
2021/04/25 04:36:33;;;;;;;16.73;7.60;;;3.80;99.90;;;;;;5092233;28;20287;-77
2021/04/25 04:38:59;;;;;;;17.07;7.63;;;3.90;99.90;;;;;;5092617;28;20204;-76
2021/04/25 04:41:25;;;;;;;18.37;8.07;;;3.90;99.90;;;;;;5092602;28;20560;-76
2021/04/25 04:43:53;;;;;;;19.10;7.43;;;3.90;99.90;;;;;;5092238;28;20196;-79
2021/04/25 04:46:20;;;;;;;19.37;8.20;;;3.90;99.90;;;;;;5092450;28;20664;-76
2021/04/25 04:48:47;;;;;;;21.70;8.13;;;3.90;99.90;;;;;;5092350;28;20203;-78
2021/04/25 04:51:13;;;;;;;16.10;7.80;;;3.90;99.90;;;;;;5077858;28;20655;-76
2021/04/25 04:53:40;;;;;;;19.57;8.20;;;4.00;99.90;;;;;;5092160;28;20198;-76
2021/04/25 04:56:06;;;;;;;17.60;8.00;;;4.10;99.90;;;;;;5092579;28;20342;-78
2021/04/25 04:58:33;;;;;;;16.10;7.43;;;4.20;99.90;;;;;;5092190;28;20204;-78
2021/04/25 05:00:59;;;;;;;20.97;8.13;;;4.20;99.90;;;;;;5092445;28;20639;-75
2021/04/25 05:03:25;;;;;;;21.13;7.73;;;4.40;99.90;;;;;;5092161;28;20714;-79
2021/04/25 05:05:53;;;;;;;20.97;8.10;;;4.60;99.90;;;;;;5092378;28;20676;-76
2021/04/25 05:08:19;;;;;;;20.77;7.87;;;4.70;99.90;;;;;;5092116;28;20702;-76
2021/04/25 05:10:45;;;;;;;16.37;7.03;;;4.70;99.90;;;;;;5096074;28;20602;-75
2021/04/25 05:13:12;;;;;;;15.57;7.93;;;4.80;99.90;;;;;;5096106;28;20197;-76
2021/04/25 05:15:39;;;;;;;15.90;7.70;;;4.80;99.90;;;;;;5095927;28;20719;-76
2021/04/25 05:18:06;;;;;;;20.00;7.77;;;4.80;99.90;;;;;;5096160;28;20289;-79
2021/04/25 05:20:32;;;;;;;16.10;7.60;;;5.00;99.90;;;;;;5095987;28;20709;-78
2021/04/25 05:23:01;;;;;;;20.93;7.80;;;5.30;99.90;;;;;;5096364;28;20722;-76
2021/04/25 05:25:27;;;;;;;14.67;7.10;;;6.10;99.90;;;;;;5096012;28;20284;-76
2021/04/25 05:27:54;;;;;;;16.80;7.67;;;6.70;99.90;;;;;;5096093;28;20196;-77
2021/04/25 05:30:22;;;;;;;16.53;7.73;;;7.50;99.90;;;;;;5095983;28;20196;-79
2021/04/25 05:32:48;;;;;;;13.70;6.80;;;7.90;99.90;;;;;;5095944;28;20201;-76
2021/04/25 05:35:16;;;;;;;11.53;6.27;;;7.90;99.90;;;;;;5095826;28;20226;-73
2021/04/25 05:37:43;;;;;;;15.20;6.33;;;7.50;99.90;;;;;;5096087;28;20206;-73
2021/04/25 05:40:12;;;;;;;16.23;7.90;;;6.90;99.90;;;;;;5095559;28;20286;-79
2021/04/25 05:42:39;;;;;;;18.00;6.60;;;6.40;99.90;;;;;;5095859;28;20299;-77
2021/04/25 05:45:07;;;;;;;14.90;6.23;;;6.20;99.90;;;;;;5095108;28;20291;-76
2021/04/25 05:47:33;;;;;;;14.27;6.30;;;5.90;99.90;;;;;;5095718;28;20381;-76
2021/04/25 05:50:00;;;;;;;16.70;6.60;;;5.70;99.90;;;;;;5095861;28;20225;-76
2021/04/25 05:52:26;;;;;;;14.73;6.57;;;5.80;99.90;;;;;;5095529;28;20201;-79
2021/04/25 05:54:53;;;;;;;15.97;5.90;;;5.60;99.90;;;;;;5095715;28;20250;-77
2021/04/25 05:57:20;;;;;;;14.20;6.57;;;5.70;99.90;;;;;;5095034;28;20220;-76
2021/04/25 05:59:46;;;;;;;15.33;6.27;;;5.60;99.90;;;;;;5095106;28;20198;-76
2021/04/25 06:02:12;;;;;;;10.87;5.37;;;5.60;99.90;;;;;;5095763;28;20198;-76
2021/04/25 06:04:41;;;;;;;12.67;5.67;;;5.60;99.90;;;;;;5094911;28;20226;-75
2021/04/25 06:07:07;;;;;;;11.93;5.40;;;5.60;99.90;;;;;;5095357;28;20226;-77
2021/04/25 06:09:34;;;;;;;13.03;4.67;;;5.60;99.90;;;;;;5095247;28;20196;-76
2021/04/25 06:12:00;;;;;;;13.50;5.27;;;5.60;99.90;;;;;;5095400;28;20196;-78
2021/04/25 06:14:27;;;;;;;11.70;4.87;;;5.70;99.90;;;;;;5095407;28;20188;-79
2021/04/25 06:16:54;;;;;;;14.23;5.27;;;5.70;99.90;;;;;;5095001;28;20200;-76
2021/04/25 06:19:20;;;;;;;8.10;3.73;;;5.80;99.90;;;;;;5094882;28;20233;-76
2021/04/25 06:21:46;;;;;;;10.53;4.83;;;5.80;99.90;;;;;;5093708;28;20287;-76
2021/04/25 06:24:13;;;;;;;19.23;5.73;;;5.90;99.90;;;;;;5094478;28;20669;-76
2021/04/25 06:26:39;;;;;;;8.47;3.87;;;6.10;99.90;;;;;;5095026;28;20198;-76
2021/04/25 06:29:06;;;;;;;11.40;4.07;;;6.20;99.90;;;;;;5094616;28;20281;-78
2021/04/25 06:31:34;;;;;;;8.70;3.87;;;6.10;99.90;;;;;;5095240;28;20200;-76
2021/04/25 06:34:01;;;;;;;12.30;4.17;;;6.10;99.90;;;;;;5094602;28;20201;-76
2021/04/25 06:36:27;;;;;;;7.93;3.83;;;6.10;99.90;;;;;;5095302;28;20316;-76
2021/04/25 06:38:54;;;;;;;12.83;3.23;;;6.20;99.90;;;;;;5094447;28;20202;-79
2021/04/25 06:41:20;;;;;;;8.67;3.43;;;6.30;99.90;;;;;;5094989;28;20295;-78
2021/04/25 06:43:46;;;;;;;9.70;3.60;;;6.40;99.90;;;;;;5094613;28;20200;-76
2021/04/25 06:46:13;;;;;;;6.97;3.10;;;6.40;99.90;;;;;;5094954;28;20283;-76
2021/04/25 06:48:40;;;;;;;11.87;4.23;;;6.40;99.90;;;;;;5093951;28;20272;-76
2021/04/25 06:51:07;;;;;;;7.23;3.17;;;6.40;99.90;;;;;;5093866;28;20673;-76
2021/04/25 06:53:33;;;;;;;8.63;3.40;;;6.50;99.90;;;;;;5094631;28;20601;-78
2021/04/25 06:55:59;;;;;;;10.30;3.23;;;6.50;99.90;;;;;;5090579;28;20218;-77
2021/04/25 06:58:26;;;;;;;6.23;3.47;;;6.60;99.90;;;;;;5095037;28;20368;-77
2021/04/25 07:00:52;;;;;;;11.30;2.83;;;6.50;99.90;;;;;;5079737;28;20723;-78
2021/04/25 07:03:18;;;;;;;8.27;3.27;;;6.60;99.90;;;;;;5084763;28;20299;-77
2021/04/25 07:05:46;;;;;;;6.67;3.00;;;6.60;99.90;;;;;;5094368;28;20684;-75
2021/04/25 07:08:13;;;;;;;6.87;2.80;;;6.70;99.90;;;;;;5093985;28;20614;-76
2021/04/25 07:10:39;;;;;;;9.50;2.93;;;6.70;99.90;;;;;;5093559;28;20200;-76
2021/04/25 07:13:06;;;;;;;9.40;2.83;;;6.80;99.90;;;;;;5093844;28;20231;-76
2021/04/25 07:15:32;;;;;;;9.70;3.30;;;6.80;99.90;;;;;;5093837;28;20566;-76
2021/04/25 07:17:59;;;;;;;9.80;3.20;;;6.90;99.90;;;;;;5093901;28;20282;-76
2021/04/25 07:20:25;;;;;;;8.70;3.90;;;7.00;99.90;;;;;;5093449;28;20650;-76
2021/04/25 07:22:53;;;;;;;7.53;3.27;;;7.20;99.90;;;;;;5073632;28;20201;-76
2021/04/25 07:25:19;;;;;;;6.57;2.93;;;7.30;99.90;;;;;;5073524;28;20296;-75
2021/04/25 07:27:45;;;;;;;7.03;3.13;;;7.20;99.90;;;;;;5092457;28;20298;-79
2021/04/25 07:30:13;;;;;;;5.07;2.63;;;7.30;99.90;;;;;;5089567;28;20724;-78
2021/04/25 07:32:39;;;;;;;6.20;3.00;;;7.40;99.90;;;;;;5093501;28;20616;-76
2021/04/25 07:35:07;;;;;;;10.27;4.83;;;7.50;99.90;;;;;;5093251;28;20544;-76
2021/04/25 07:37:34;;;;;;;10.57;3.30;;;7.40;99.90;;;;;;5092709;28;20662;-77
2021/04/25 07:40:01;;;;;;;9.00;3.23;;;7.40;99.90;;;;;;5094049;28;20276;-79
2021/04/25 07:42:27;;;;;;;10.53;3.13;;;7.50;99.90;;;;;;5084961;28;20204;-79
2021/04/25 07:44:55;;;;;;;9.67;3.57;;;7.40;99.90;;;;;;5093572;28;20243;-79
2021/04/25 07:47:21;;;;;;;7.67;3.20;;;7.40;99.90;;;;;;5089821;28;20208;-78
2021/04/25 07:49:47;;;;;;;12.20;3.53;;;7.60;99.90;;;;;;5083379;28;20200;-76
2021/04/25 07:52:14;;;;;;;10.77;3.17;;;7.70;99.90;;;;;;5084144;28;20667;-77
2021/04/25 07:54:41;;;;;;;8.10;3.30;;;7.60;99.90;;;;;;5074415;28;20194;-76
2021/04/25 07:57:09;;;;;;;8.17;3.40;;;7.50;99.90;;;;;;5085229;28;20195;-78
2021/04/25 07:59:35;;;;;;;6.53;3.17;;;7.50;99.90;;;;;;5080684;28;20568;-77
2021/04/25 08:02:02;;;;;;;6.67;3.20;;;7.50;99.90;;;;;;5084584;28;20525;-77
2021/04/25 08:04:28;;;;;;;10.27;3.20;;;7.60;99.90;;;;;;5093956;28;20192;-76
2021/04/25 08:06:55;;;;;;;7.77;3.30;;;7.70;99.90;;;;;;5093108;28;20753;-75
2021/04/25 08:09:21;;;;;;;15.53;3.20;;;7.60;99.90;;;;;;5093315;28;20205;-76
2021/04/25 08:11:48;;;;;;;6.57;3.00;;;7.60;99.90;;;;;;5093006;28;20201;-79
2021/04/25 08:14:15;;;;;;;7.67;3.00;;;8.10;99.90;;;;;;5092458;28;20200;-77
2021/04/25 08:16:42;;;;;;;9.90;3.63;;;8.60;99.90;;;;;;5091161;28;20307;-76
2021/04/25 08:19:08;;;;;;;4.63;2.40;;;9.90;99.90;;;;;;5093509;28;20241;-79
2021/04/25 08:21:35;;;;;;;6.27;3.33;;;11.30;99.90;;;;;;5091948;28;20629;-78
2021/04/25 08:24:01;;;;;;;5.47;3.00;;;12.10;99.90;;;;;;5093418;28;20686;-76
2021/04/25 08:26:27;;;;;;;8.27;3.03;;;12.70;99.90;;;;;;5094803;28;20210;-78
2021/04/25 08:28:54;;;;;;;8.33;3.47;;;13.20;99.90;;;;;;5093207;28;20211;-73
2021/04/25 08:31:21;;;;;;;9.57;3.77;;;12.90;99.90;;;;;;5092345;28;20252;-73
2021/04/25 08:33:48;;;;;;;9.10;3.33;;;12.00;99.90;;;;;;5093439;28;20233;-73
2021/04/25 08:36:15;;;;;;;11.60;3.50;;;12.10;99.90;;;;;;5093064;28;20564;-74
2021/04/25 08:38:42;;;;;;;7.30;3.27;;;12.20;99.90;;;;;;5091246;28;20202;-74
2021/04/25 08:41:12;;;;;;;6.70;3.20;;;12.90;99.90;;;;;;5095359;28;20255;-73
2021/04/25 08:43:42;;;;;;;10.47;4.30;;;13.80;99.90;;;;;;5091028;28;20201;-74
2021/04/25 08:46:09;;;;;;;5.93;3.00;;;13.80;99.90;;;;;;5091360;28;20290;-77
2021/04/25 08:48:36;;;;;;;8.30;3.77;;;13.70;99.90;;;;;;5094042;28;20273;-76
2021/04/25 08:51:04;;;;;;;7.23;3.37;;;13.30;99.90;;;;;;5091306;28;20510;-74
2021/04/25 08:53:31;;;;;;;9.30;3.90;;;13.40;99.90;;;;;;5087118;28;20609;-74
2021/04/25 08:55:58;;;;;;;7.80;3.50;;;13.30;99.90;;;;;;5091039;28;20290;-73
2021/04/25 08:58:24;;;;;;;11.50;3.07;;;14.00;99.90;;;;;;5090315;28;20812;-74
2021/04/25 09:00:51;;;;;;;10.83;3.47;;;12.70;99.90;;;;;;5091281;28;20201;-76
2021/04/25 09:03:17;;;;;;;8.77;3.77;;;12.70;99.90;;;;;;5093308;28;20248;-74
2021/04/25 09:05:45;;;;;;;8.03;3.17;;;11.90;99.90;;;;;;5091854;28;20727;-73
2021/04/25 09:08:11;;;;;;;5.37;3.23;;;11.40;99.90;;;;;;5090120;28;20203;-73
2021/04/25 09:10:41;;;;;;;8.70;3.30;;;11.50;99.90;;;;;;5091742;28;20217;-73
2021/04/25 09:13:20;;;;;;;6.10;2.90;;;10.90;99.90;;;;;;5094002;28;20280;-73
2021/04/25 09:15:47;;;;;;;6.63;3.03;;;11.30;99.90;;;;;;5094201;28;20255;-73
2021/04/25 09:18:14;;;;;;;6.07;3.33;;;11.70;99.90;;;;;;5089539;28;20190;-74
2021/04/25 09:20:44;;;;;;;12.27;3.73;;;10.90;99.90;;;;;;5092322;28;20694;-75
2021/04/25 09:23:13;;;;;;;7.77;3.43;;;11.10;99.90;;;;;;5077996;28;20293;-75
2021/04/25 09:25:52;;;;;;;7.23;3.40;;;12.30;99.90;;;;;;5088588;28;20308;-76
2021/04/25 09:28:18;;;;;;;11.93;3.77;;;12.90;99.90;;;;;;5092362;28;20188;-74
2021/04/25 09:30:56;;;;;;;6.00;3.27;;;13.30;99.90;;;;;;5084857;28;20296;-75
2021/04/25 09:33:26;;;;;;;11.53;3.37;;;13.90;99.90;;;;;;5085002;28;20608;-74
2021/04/25 09:35:53;;;;;;;9.27;3.53;;;13.70;99.90;;;;;;5092951;28;20234;-75
2021/04/25 09:38:20;;;;;;;6.20;3.20;;;13.50;99.90;;;;;;5091161;28;20680;-74
2021/04/25 09:40:49;;;;;;;8.53;3.40;;;14.00;99.90;;;;;;5094817;28;20238;-76
2021/04/25 09:43:16;;;;;;;8.67;3.47;;;14.40;99.90;;;;;;5089801;28;20893;-74
2021/04/25 09:45:45;;;;;;;7.13;3.50;;;14.40;99.90;;;;;;5088741;28;20725;-75
2021/04/25 09:48:26;;;;;;;8.30;3.57;;;13.90;99.90;;;;;;5091611;28;20284;-75
2021/04/25 09:51:09;;;;;;;6.37;3.30;;;13.90;99.90;;;;;;5088446;28;20199;-74
2021/04/25 09:53:38;;;;;;;7.03;3.40;;;14.30;99.90;;;;;;5091836;28;20282;-76
2021/04/25 09:56:05;;;;;;;7.70;3.50;;;14.30;99.90;;;;;;5090099;28;20285;-74
2021/04/25 09:58:31;;;;;;;9.63;3.30;;;14.10;99.90;;;;;;5094804;28;20266;-75
2021/04/25 10:00:57;;;;;;;7.90;3.50;;;14.10;99.90;;;;;;5095041;28;20269;-77
2021/04/25 10:03:35;;;;;;;6.43;3.53;;;14.30;99.90;;;;;;5094961;28;20282;-74
2021/04/25 10:06:04;;;;;;;9.57;3.60;;;14.40;99.90;;;;;;5091999;28;20198;-74
2021/04/25 10:08:32;;;;;;;8.63;3.73;;;14.50;99.90;;;;;;5090821;28;20656;-76
2021/04/25 10:11:02;;;;;;;11.00;4.03;;;14.30;99.90;;;;;;5081407;28;20267;-77
2021/04/25 10:13:29;;;;;;;8.80;3.87;;;14.10;99.90;;;;;;5094281;28;20201;-74
2021/04/25 10:15:55;;;;;;;6.90;3.30;;;15.20;99.90;;;;;;5094648;28;20219;-74
2021/04/25 10:18:22;;;;;;;8.20;3.50;;;15.00;99.90;;;;;;5089443;28;20298;-74
2021/04/25 10:20:50;;;;;;;7.77;3.37;;;14.80;99.90;;;;;;5091313;28;20191;-74
2021/04/25 10:23:17;;;;;;;11.30;3.53;;;14.60;99.90;;;;;;5074386;28;20736;-74
2021/04/25 10:25:44;;;;;;;5.53;3.50;;;14.30;99.90;;;;;;5090345;28;20195;-74
2021/04/25 10:28:18;;;;;;;8.53;3.00;;;13.90;99.90;;;;;;5071885;28;20228;-73
2021/04/25 10:30:46;;;;;;;5.87;3.63;;;14.10;99.90;;;;;;5086751;28;20216;-74
2021/04/25 10:33:12;;;;;;;8.43;3.40;;;13.80;99.90;;;;;;5095196;28;20249;-75
2021/04/25 10:35:53;;;;;;;8.77;3.40;;;14.40;99.90;;;;;;5094181;28;20241;-75
2021/04/25 10:38:34;;;;;;;7.70;3.20;;;15.10;99.90;;;;;;5092960;28;20623;-74
2021/04/25 10:41:19;;;;;;;7.97;3.50;;;14.00;99.90;;;;;;5093002;28;20209;-78
2021/04/25 10:44:01;;;;;;;6.77;2.80;;;14.10;99.90;;;;;;5073901;28;20282;-80
2021/04/25 10:46:50;;;;;;;6.93;3.43;;;13.80;99.90;;;;;;5092307;28;20199;-79
2021/04/25 10:49:30;;;;;;;7.40;3.27;;;14.40;99.90;;;;;;5090231;28;20195;-79
2021/04/25 10:52:20;;;;;;;6.20;3.50;;;15.50;99.90;;;;;;5089260;28;20215;-79
2021/04/25 10:55:20;;;;;;;7.13;3.07;;;15.50;99.90;;;;;;5084914;28;20260;-78
2021/04/25 10:58:18;;;;;;;7.13;3.30;;;15.30;99.90;;;;;;5089159;28;20198;-79
2021/04/25 11:00:45;;;;;;;9.63;3.23;;;15.10;99.90;;;;;;5092569;28;20218;-79
2021/04/25 11:03:13;;;;;;;8.10;3.30;;;14.80;99.90;;;;;;5091722;28;20202;-79
2021/04/25 11:05:44;;;;;;;6.07;2.80;;;14.40;99.90;;;;;;5091101;28;20202;-78
2021/04/25 11:08:41;;;;;;;8.10;3.40;;;15.00;99.90;;;;;;5090514;28;20588;-78
2021/04/25 11:11:10;;;;;;;6.80;3.00;;;15.30;99.90;;;;;;5046520;28;20548;-80
2021/04/25 11:13:43;;;;;;;8.60;2.93;;;15.80;99.90;;;;;;5090805;28;20259;-78
2021/04/25 11:16:26;;;;;;;7.23;2.50;;;15.50;99.90;;;;;;5091743;28;20242;-80
2021/04/25 11:18:54;;;;;;;8.13;3.20;;;14.90;99.90;;;;;;5096618;28;20206;-80
2021/04/25 11:21:52;;;;;;;8.10;3.13;;;14.60;99.90;;;;;;5092578;28;20615;-79
2021/04/25 11:24:30;;;;;;;5.23;2.73;;;14.50;99.90;;;;;;5097545;28;20249;-80
2021/04/25 11:26:59;;;;;;;6.13;3.13;;;15.10;99.90;;;;;;5079645;28;20206;-80
2021/04/25 11:29:50;;;;;;;7.07;3.23;;;15.30;99.90;;;;;;5092859;28;20190;-81
2021/04/25 11:32:29;;;;;;;7.30;2.90;;;16.20;99.90;;;;;;5085156;28;20206;-80
2021/04/25 11:35:00;;;;;;;5.83;2.63;;;16.50;99.90;;;;;;5078039;28;20309;-82
2021/04/25 11:37:48;;;;;;;6.17;3.03;;;15.20;99.90;;;;;;5090220;28;20195;-81
2021/04/25 11:40:30;;;;;;;10.13;3.20;;;15.20;99.90;;;;;;5095577;28;20221;-81
2021/04/25 11:43:05;;;;;;;4.90;2.70;;;14.60;99.90;;;;;;5091261;28;20198;-81
2021/04/25 11:45:35;;;;;;;11.50;3.20;;;14.40;99.90;;;;;;5094649;28;20194;-81
2021/04/25 11:48:11;;;;;;;6.00;3.07;;;14.60;99.90;;;;;;5092788;28;20206;-80
2021/04/25 11:50:53;;;;;;;6.73;2.90;;;15.10;99.90;;;;;;5086712;28;20302;-82
2021/04/25 11:53:35;;;;;;;9.70;3.20;;;15.10;99.90;;;;;;5087249;28;20201;-81
2021/04/25 11:56:31;;;;;;;9.73;3.33;;;15.20;99.90;;;;;;5091854;28;20680;-81
2021/04/25 12:02:49;;;;;;;7.37;3.40;;;15.70;99.90;;;;;;5032656;28;20193;-82
2021/04/25 12:05:21;;;;;;;6.50;3.10;;;15.40;99.90;;;;;;5090385;28;20219;-82
2021/04/25 12:07:55;;;;;;;8.00;3.00;;;14.40;99.90;;;;;;5094683;28;20239;-81
2021/04/25 12:10:32;;;;;;;9.73;3.30;;;14.30;99.90;;;;;;5089453;28;20198;-82
2021/04/25 12:13:08;;;;;;;8.03;3.40;;;14.20;99.90;;;;;;5090093;28;20210;-82
2021/04/25 12:15:47;;;;;;;8.43;4.00;;;14.10;99.90;;;;;;5092807;28;20217;-81
2021/04/25 12:18:17;;;;;;;16.37;5.30;;;14.60;99.90;;;;;;5094354;28;20272;-81
2021/04/25 12:20:46;;;;;;;7.50;3.03;;;14.70;99.90;;;;;;5091162;28;20210;-81
2021/04/25 12:23:17;;;;;;;12.17;3.43;;;15.30;99.90;;;;;;5093376;28;20191;-81
2021/04/25 12:25:44;;;;;;;7.63;3.20;;;14.60;99.90;;;;;;5077392;28;20195;-81
2021/04/25 12:28:12;;;;;;;10.00;3.47;;;14.80;99.90;;;;;;5091974;28;20285;-81
2021/04/25 12:30:43;;;;;;;10.97;3.57;;;14.50;99.90;;;;;;5092285;28;20679;-81
2021/04/25 12:33:12;;;;;;;8.70;3.40;;;14.80;99.90;;;;;;5092588;28;20221;-82
2021/04/25 12:35:40;;;;;;;6.03;3.43;;;15.40;99.90;;;;;;5090227;28;20310;-81
2021/04/25 12:38:25;;;;;;;7.30;3.40;;;15.60;99.90;;;;;;5094015;28;20218;-82
2021/04/25 12:41:00;;;;;;;9.50;3.10;;;15.70;99.90;;;;;;5087746;28;20605;-80
2021/04/25 12:43:31;;;;;;;7.33;3.53;;;16.00;99.90;;;;;;5086297;28;20255;-82
2021/04/25 12:45:59;;;;;;;8.13;3.43;;;15.70;99.90;;;;;;5090697;28;20241;-80
2021/04/25 12:48:31;;;;;;;7.43;3.07;;;15.50;99.90;;;;;;5090503;28;20660;-81
2021/04/25 12:51:22;;;;;;;9.10;3.40;;;14.80;99.90;;;;;;5086976;28;20213;-83
2021/04/25 12:54:10;;;;;;;8.63;4.23;;;14.70;99.90;;;;;;5087333;28;20209;-79
2021/04/25 12:56:46;;;;;;;8.77;3.17;;;14.60;99.90;;;;;;5091743;28;20255;-80
2021/04/25 12:59:16;;;;;;;7.37;3.23;;;14.40;99.90;;;;;;5087130;28;20195;-79
2021/04/25 13:01:49;;;;;;;8.03;3.10;;;14.80;99.90;;;;;;5085245;28;20210;-78